Vernon, FL

8:54 AM CDT on September 01, 2014 (GMT -0500)
Northwest Florida Beaches International | Change Station
CLOSE
Current Station
Airport
Location: Panama City,
Elevation: 69 ft
Nearby Weather Stations

Elev 69 ft 30.36 °N, 85.80 °W | Updated 1 hour ago

Clear
Clear
78 °F
Feels Like 78 °F
N
5
Wind Variable Wind from ENE

Today
High -- | Low -- °F
--% Chance of Precip.
Yesterday
High -- | Low -- °F
Precip. -- in
6:20 AM 7:06 PM
Waxing Crescent, 41% visible
Pressure 30.12 in
Visibility 10.0 miles
Clouds Clear
Dew Point 75 °F
Humidity 90%
Rainfall 0.00 in
Snow Depth Not available.
UV 1 out of 12
Pollen 7.70 out of 12
Air Quality Not available.
Flu Activity Not available.
METAR KECP 011253Z 07004KT 10SM CLR 26/24 A3009 RMK AO2 SLP200 T02560239

More Conditions Fewer Conditions

Pressure 30.12 in
Visibility 10.0 miles
Clouds Clear
Dew Point 75 °F
Humidity 90%
Rainfall 0.00 in
Snow Depth Not available.
UV 1 out of 12
Pollen 7.70 out of 12
Air Quality Not available.
Flu Activity Not available.
METAR KECP 011253Z 07004KT 10SM CLR 26/24 A3009 RMK AO2 SLP200 T02560239

More Conditions Fewer Conditions

10-Day Weather Forecast

Almanac

Astronomy

Sep. 01, 2014 Rise Set
Actual Time 6:20 AM CDT 7:06 PM CDT
Civil Twilight 5:55 AM CDT 7:30 PM CDT
Nautical Twilight 5:26 AM CDT 7:59 PM CDT
Astronomical Twilight 4:57 AM CDT 8:28 PM CDT
Moon 12:37 PM CDT 11:35 PM CDT
Length of Visible Light 13h 35m
Length of Day
12h 46m
Tomorrow will be 1m 47s shorter.
Waxing Crescent, 41% of the Moon is Illuminated
Today
Waxing Crescent
Sep 2
First Quarter
Sep 8
Full
Sep 15
Last Quarter
Sep 24
New

Today's Extremes

State Highs State Lows

Community

WunderPhotos

Upload Photos

1,749,222 photos uploaded!

Nearby

Snow Depth

Station Depth Elevation
No new snow has been reported.

Earthquake Activity

City Distance Mag. Time & Date
No recent earthquake activity has been reported nearby.
Minimum magnitude displayed is 2.5.

Coastal Water Temperatures

Place Temperature
Panama City, FL 86.0 °F
Panama City Beach, FL 86.0 °F
Apalachicola, FL 88.0 °F

Nearby Weather Stations